createdAt,value
2023-05-02T00:02:04.543Z,59.04
2023-05-02T00:04:53.533Z,59.21
2023-05-02T00:07:42.247Z,59.29
2023-05-02T00:10:30.904Z,59.48
2023-05-02T00:13:19.481Z,59.54
2023-05-02T00:16:08.131Z,59.88
2023-05-02T00:18:56.839Z,60.10
2023-05-02T00:21:49.457Z,60.37
2023-05-02T00:24:38.276Z,60.46
2023-05-02T00:27:26.886Z,60.59
2023-05-02T00:30:16.364Z,60.90
2023-05-02T00:33:07.245Z,61.28
2023-05-02T00:35:55.898Z,61.53
2023-05-02T00:38:45.036Z,61.60
2023-05-02T00:41:33.819Z,61.81
2023-05-02T00:44:22.967Z,62.03
2023-05-02T00:47:11.740Z,62.20
2023-05-02T00:50:01.657Z,62.50
2023-05-02T00:52:50.690Z,62.77
2023-05-02T00:55:39.359Z,62.82
2023-05-02T00:58:29.422Z,62.97
2023-05-02T01:06:07.638Z,63.45
2023-05-02T01:09:19.345Z,63.44
2023-05-02T01:12:23.440Z,63.47
2023-05-02T01:15:17.523Z,63.63
2023-05-02T01:18:13.193Z,63.74
2023-05-02T01:21:10.053Z,63.79
2023-05-02T01:24:12.823Z,63.83
2023-05-02T01:27:18.988Z,63.91
2023-05-02T01:30:12.052Z,63.94
2023-05-02T01:33:03.367Z,64.13
2023-05-02T01:35:53.136Z,64.27
2023-05-02T01:38:43.889Z,64.34
2023-05-02T01:41:34.970Z,64.59
2023-05-02T01:44:25.017Z,64.76
2023-05-02T01:47:15.394Z,65.06
2023-05-02T01:50:07.675Z,65.23
2023-05-02T01:52:59.031Z,65.30
2023-05-02T01:55:49.104Z,65.43
2023-05-02T01:58:39.820Z,65.59
2023-05-02T02:01:31.232Z,65.88
2023-05-02T02:04:22.155Z,66.03
2023-05-02T02:07:13.584Z,66.17
2023-05-02T02:10:02.637Z,66.24
2023-05-02T02:12:59.789Z,66.41
2023-05-02T02:15:51.124Z,66.53
2023-05-02T02:18:39.680Z,66.73
2023-05-02T02:21:31.545Z,66.83
2023-05-02T02:24:22.892Z,66.96
2023-05-02T02:27:11.685Z,67.05
2023-05-02T02:30:01.109Z,67.20
2023-05-02T02:32:50.281Z,67.33
2023-05-02T02:35:44.166Z,67.30
2023-05-02T02:38:45.662Z,67.47
2023-05-02T02:41:45.969Z,67.63
2023-05-02T02:44:44.450Z,67.87
2023-05-02T02:47:44.101Z,68.17
2023-05-02T02:50:43.057Z,68.24
2023-05-02T02:53:53.304Z,68.26
2023-05-02T02:56:46.927Z,68.33
2023-05-02T02:59:41.909Z,68.37
2023-05-02T03:02:33.009Z,68.52
2023-05-02T03:05:22.643Z,68.52
2023-05-02T03:08:12.203Z,68.76
2023-05-02T03:11:01.204Z,68.94
2023-05-02T03:13:50.571Z,69.12
2023-05-02T03:16:40.831Z,69.22
2023-05-02T03:19:32.908Z,69.41
2023-05-02T03:22:21.713Z,69.56
2023-05-02T03:25:10.421Z,69.76
2023-05-02T03:28:00.260Z,69.84
2023-05-02T03:30:49.319Z,70.01
2023-05-02T03:33:38.265Z,70.15
2023-05-02T03:36:27.703Z,70.26
2023-05-02T03:39:16.522Z,70.32
2023-05-02T03:42:06.135Z,70.39
2023-05-02T03:44:54.807Z,70.45
2023-05-02T03:47:44.327Z,70.51
2023-05-02T03:50:33.559Z,70.54
2023-05-02T03:53:22.443Z,70.70
2023-05-02T03:56:12.756Z,70.67
2023-05-02T03:59:06.495Z,70.59
2023-05-02T04:01:55.125Z,70.74
2023-05-02T04:04:49.432Z,70.85
2023-05-02T04:07:41.851Z,70.98
2023-05-02T04:10:30.849Z,71.29
2023-05-02T04:13:21.999Z,71.51
2023-05-02T04:16:11.245Z,71.99
2023-05-02T04:19:01.044Z,72.10
2023-05-02T04:21:50.466Z,72.37
2023-05-02T04:24:39.875Z,72.37
2023-05-02T04:27:29.989Z,72.41
2023-05-02T04:30:19.432Z,72.33
2023-05-02T04:33:16.672Z,72.39
2023-05-02T04:36:06.051Z,72.47
2023-05-02T04:38:56.103Z,72.60
2023-05-02T04:41:44.965Z,72.95
2023-05-02T04:44:33.786Z,73.00
2023-05-02T04:47:22.444Z,72.90
2023-05-02T04:50:11.420Z,72.66
2023-05-02T04:53:00.305Z,72.50
2023-05-02T04:55:49.758Z,72.02
2023-05-02T04:58:38.717Z,71.59
2023-05-02T05:01:30.472Z,71.34
2023-05-02T05:04:19.647Z,70.50
2023-05-02T05:07:08.909Z,69.98
2023-05-02T05:09:57.722Z,69.45
2023-05-02T05:12:49.763Z,68.98
2023-05-02T05:15:39.131Z,68.30
2023-05-02T05:18:28.296Z,67.53
2023-05-02T05:21:17.078Z,67.27
2023-05-02T05:24:06.891Z,66.68
2023-05-02T05:26:55.532Z,65.98
2023-05-02T05:29:44.577Z,65.63
2023-05-02T05:32:34.055Z,65.11
2023-05-02T05:35:24.317Z,64.89
2023-05-02T05:38:13.143Z,64.77
2023-05-02T05:41:05.543Z,64.35
2023-05-02T05:43:56.335Z,64.37
2023-05-02T05:46:46.393Z,64.19
2023-05-02T05:49:39.010Z,64.11
2023-05-02T05:52:30.233Z,63.86
2023-05-02T05:55:20.878Z,63.44
2023-05-02T05:58:09.741Z,63.16
2023-05-02T06:00:59.641Z,63.12
2023-05-02T06:03:48.688Z,63.22
2023-05-02T06:06:38.299Z,62.51
2023-05-02T06:09:27.297Z,62.55
2023-05-02T06:12:16.524Z,62.03
2023-05-02T06:15:06.153Z,61.61
2023-05-02T06:17:54.953Z,61.44
2023-05-02T06:20:43.772Z,61.35
2023-05-02T06:23:33.410Z,61.40
2023-05-02T06:26:22.416Z,61.14
2023-05-02T06:29:11.238Z,61.11
2023-05-02T06:32:00.993Z,60.76
2023-05-02T06:34:52.864Z,60.80
2023-05-02T06:37:41.641Z,60.63
2023-05-02T06:40:30.466Z,60.72
2023-05-02T06:43:19.853Z,60.95
2023-05-02T06:46:08.954Z,60.91
2023-05-02T06:48:57.548Z,60.54
2023-05-02T06:51:46.005Z,60.86
2023-05-02T06:54:34.771Z,60.53
2023-05-02T06:57:24.921Z,60.14
2023-05-02T07:00:14.558Z,59.85
2023-05-02T07:03:04.435Z,60.14
2023-05-02T07:05:53.012Z,59.96
2023-05-02T07:08:41.723Z,60.29
2023-05-02T07:11:30.294Z,60.07
2023-05-02T07:14:18.997Z,60.21
2023-05-02T07:17:08.532Z,60.49
2023-05-02T07:19:57.416Z,60.15
2023-05-02T07:22:46.184Z,60.61
2023-05-02T07:25:35.082Z,60.48
2023-05-02T07:28:23.744Z,60.06
2023-05-02T07:31:12.694Z,59.94
2023-05-02T07:34:01.523Z,59.57
2023-05-02T07:36:50.169Z,59.68
2023-05-02T07:39:38.627Z,60.06
2023-05-02T07:42:31.011Z,59.71
2023-05-02T07:45:19.616Z,58.77
2023-05-02T07:48:08.596Z,58.65
2023-05-02T07:51:05.994Z,58.60
2023-05-02T07:53:55.938Z,58.84
2023-05-02T07:56:44.937Z,58.60
2023-05-02T07:59:33.571Z,58.04
2023-05-02T08:02:23.009Z,58.56
2023-05-02T08:05:12.096Z,58.59
2023-05-02T08:08:02.298Z,59.09
2023-05-02T08:10:51.499Z,58.89
2023-05-02T08:13:40.063Z,58.50
2023-05-02T08:16:28.887Z,58.89
2023-05-02T08:19:17.392Z,58.28
2023-05-02T08:22:06.846Z,58.29
2023-05-02T08:24:55.540Z,58.69
2023-05-02T08:27:44.173Z,58.78
2023-05-02T08:30:32.959Z,58.74
2023-05-02T08:33:21.829Z,59.06
2023-05-02T08:36:11.923Z,59.07
2023-05-02T08:39:00.762Z,58.70
2023-05-02T08:41:50.259Z,59.35
2023-05-02T08:44:38.925Z,59.55
2023-05-02T08:47:29.775Z,59.78
2023-05-02T08:50:19.212Z,58.41
2023-05-02T08:53:12.501Z,58.60
2023-05-02T08:56:01.706Z,59.14
2023-05-02T08:58:51.055Z,59.38
2023-05-02T09:01:41.799Z,59.00
2023-05-02T09:04:35.170Z,58.96
2023-05-02T09:07:23.984Z,59.15
2023-05-02T09:10:12.742Z,59.03
2023-05-02T09:13:28.453Z,58.69
2023-05-02T09:16:19.919Z,58.51
2023-05-02T09:19:09.640Z,58.96
2023-05-02T09:22:03.966Z,59.01
2023-05-02T09:24:55.932Z,59.18
2023-05-02T09:27:55.166Z,59.41
2023-05-02T09:30:44.811Z,59.39
2023-05-02T09:33:34.534Z,59.68
2023-05-02T09:36:24.811Z,59.75
2023-05-02T09:39:16.062Z,59.75
2023-05-02T09:42:04.713Z,59.22
2023-05-02T09:44:53.915Z,59.61
2023-05-02T09:47:42.632Z,59.65
2023-05-02T09:50:39.020Z,59.95
2023-05-02T09:53:28.495Z,60.02
2023-05-02T09:56:17.515Z,59.70
2023-05-02T09:59:14.655Z,59.68
2023-05-02T10:02:05.632Z,59.99
2023-05-02T10:04:58.312Z,60.40
2023-05-02T10:07:47.712Z,60.39
2023-05-02T10:10:37.928Z,60.66
2023-05-02T10:13:32.177Z,61.19
2023-05-02T10:16:29.067Z,61.11
2023-05-02T10:19:24.400Z,61.24
2023-05-02T10:22:13.725Z,61.71
2023-05-02T10:25:04.062Z,61.38
2023-05-02T10:27:53.201Z,61.84
2023-05-02T10:30:42.572Z,61.67
2023-05-02T10:33:34.189Z,61.59
2023-05-02T10:36:23.936Z,61.52
2023-05-02T10:39:12.732Z,61.87
2023-05-02T10:42:03.480Z,61.10
2023-05-02T10:44:52.097Z,61.31
2023-05-02T10:47:41.487Z,61.96
2023-05-02T10:50:43.489Z,62.05
2023-05-02T10:53:37.096Z,61.27
2023-05-02T10:56:28.473Z,61.23
2023-05-02T10:59:35.402Z,61.42
2023-05-02T11:02:25.163Z,61.69
2023-05-02T11:05:13.857Z,61.71
2023-05-02T11:08:20.135Z,61.71
2023-05-02T11:11:42.347Z,62.03
2023-05-02T11:14:39.791Z,62.03
2023-05-02T11:17:28.472Z,61.60
2023-05-02T11:20:20.815Z,61.74
2023-05-02T11:23:35.731Z,61.90
2023-05-02T11:26:26.085Z,61.79
2023-05-02T11:29:53.560Z,61.65
2023-05-02T11:32:45.551Z,62.46
2023-05-02T11:35:36.698Z,62.74
2023-05-02T11:38:26.726Z,62.71
2023-05-02T11:41:15.582Z,62.09
2023-05-02T11:44:04.551Z,62.05
2023-05-02T11:46:53.037Z,60.68
2023-05-02T11:49:41.852Z,60.24
2023-05-02T11:52:31.024Z,60.28
2023-05-02T11:55:19.722Z,60.40
2023-05-02T11:58:13.109Z,60.36
2023-05-02T12:01:16.001Z,60.57
2023-05-02T12:04:07.745Z,60.84
2023-05-02T12:06:59.534Z,60.88
2023-05-02T12:09:53.035Z,60.79
2023-05-02T12:12:43.959Z,60.50
2023-05-02T12:15:32.962Z,60.88
2023-05-02T12:18:23.982Z,61.12
2023-05-02T12:21:12.893Z,61.75
2023-05-02T12:24:02.544Z,62.29
2023-05-02T12:27:15.551Z,62.64
2023-05-02T12:30:05.543Z,63.25
2023-05-02T12:33:02.026Z,63.37
2023-05-02T12:35:51.089Z,63.51
2023-05-02T12:38:39.786Z,63.45
2023-05-02T12:41:35.504Z,63.55
2023-05-02T12:44:40.847Z,63.79
2023-05-02T12:47:29.633Z,63.51
2023-05-02T12:50:18.295Z,63.52
2023-05-02T12:53:07.691Z,63.42
2023-05-02T12:56:04.189Z,63.30
2023-05-02T12:58:52.696Z,64.05
2023-05-02T13:01:41.528Z,64.54
2023-05-02T13:04:41.560Z,64.73
2023-05-02T13:07:30.150Z,64.63
2023-05-02T13:10:19.099Z,64.65
2023-05-02T13:13:07.966Z,64.87
2023-05-02T13:15:56.587Z,64.94
2023-05-02T13:18:47.685Z,64.98
2023-05-02T13:21:36.820Z,64.08
2023-05-02T13:24:25.948Z,64.26
2023-05-02T13:27:15.478Z,64.03
2023-05-02T13:30:07.967Z,63.77
2023-05-02T13:32:58.880Z,63.42
2023-05-02T13:35:47.524Z,62.90
2023-05-02T13:38:36.130Z,62.93
2023-05-02T13:41:24.728Z,62.97
2023-05-02T13:44:13.779Z,63.17
2023-05-02T13:47:03.040Z,62.96
2023-05-02T13:49:51.881Z,63.41
2023-05-02T13:52:40.769Z,63.52
2023-05-02T13:55:29.444Z,63.62
2023-05-02T13:58:17.917Z,63.01
2023-05-02T14:01:06.984Z,62.85
2023-05-02T14:03:55.730Z,62.76
2023-05-02T14:06:44.899Z,62.39
2023-05-02T14:09:33.499Z,62.26
2023-05-02T14:12:22.178Z,62.37
2023-05-02T14:15:11.407Z,62.87
2023-05-02T14:17:59.965Z,63.30
2023-05-02T14:20:48.555Z,63.15
2023-05-02T14:23:37.138Z,63.05
2023-05-02T14:26:28.380Z,62.74
2023-05-02T14:29:17.094Z,63.16
2023-05-02T14:32:05.942Z,63.02
2023-05-02T14:34:54.893Z,63.09
2023-05-02T14:37:45.177Z,62.94
2023-05-02T14:40:33.792Z,62.84
2023-05-02T14:43:22.584Z,62.88
2023-05-02T14:46:11.861Z,62.66
2023-05-02T14:49:00.814Z,62.42
2023-05-02T14:51:50.347Z,62.03
2023-05-02T14:54:41.581Z,62.50
2023-05-02T14:57:30.950Z,62.41
2023-05-02T15:00:20.411Z,62.52
2023-05-02T15:03:09.973Z,62.75
2023-05-02T15:05:58.832Z,62.62
2023-05-02T15:08:48.286Z,62.64
2023-05-02T15:11:36.798Z,62.54
2023-05-02T15:14:25.368Z,62.74
2023-05-02T15:17:13.911Z,62.71
2023-05-02T15:20:04.619Z,62.78
2023-05-02T15:22:53.522Z,63.05
2023-05-02T15:25:42.088Z,63.22
2023-05-02T15:28:31.183Z,62.86
2023-05-02T15:31:20.486Z,62.95
2023-05-02T15:34:09.571Z,63.13
2023-05-02T15:37:00.856Z,63.28
2023-05-02T15:39:50.721Z,63.06
2023-05-02T15:42:40.105Z,63.26
2023-05-02T15:45:28.874Z,63.25
2023-05-02T15:48:24.258Z,63.23
2023-05-02T15:51:13.717Z,63.38
2023-05-02T15:54:03.566Z,63.60
2023-05-02T15:56:52.328Z,63.13
2023-05-02T15:59:41.017Z,63.00
2023-05-02T16:02:29.685Z,63.56
2023-05-02T16:05:18.299Z,63.61
2023-05-02T16:08:06.855Z,63.65
2023-05-02T16:10:56.434Z,63.61
2023-05-02T16:13:47.850Z,63.38
2023-05-02T16:16:36.520Z,63.18
2023-05-02T16:19:25.442Z,63.85
2023-05-02T16:22:14.124Z,63.96
2023-05-02T16:25:02.898Z,64.00
2023-05-02T16:27:51.633Z,64.23
2023-05-02T16:30:40.353Z,64.23
2023-05-02T16:33:30.089Z,64.09
2023-05-02T16:36:18.979Z,64.18
2023-05-02T16:39:07.590Z,64.33
2023-05-02T16:41:56.071Z,64.07
2023-05-02T16:44:44.685Z,64.06
2023-05-02T16:47:34.688Z,64.54
2023-05-02T16:50:23.497Z,64.74
2023-05-02T16:53:12.951Z,64.99
2023-05-02T16:56:01.636Z,65.04
2023-05-02T16:58:50.697Z,65.12
2023-05-02T17:01:41.825Z,65.29
2023-05-02T17:04:30.628Z,65.36
2023-05-02T17:07:19.229Z,65.37
2023-05-02T17:10:08.523Z,65.36
2023-05-02T17:12:58.517Z,65.77
2023-05-02T17:15:47.307Z,65.82
2023-05-02T17:18:36.115Z,65.82
2023-05-02T17:21:25.416Z,66.04
2023-05-02T17:24:14.101Z,65.98
2023-05-02T17:27:02.934Z,66.11
2023-05-02T17:29:51.535Z,66.22
2023-05-02T17:32:40.741Z,66.43
2023-05-02T17:35:29.868Z,66.71
2023-05-02T17:38:18.518Z,66.82
2023-05-02T17:41:07.101Z,67.07
2023-05-02T17:43:55.841Z,66.98
2023-05-02T17:46:44.807Z,67.33
2023-05-02T17:49:34.266Z,67.52
2023-05-02T17:52:23.102Z,67.44
2023-05-02T17:55:11.700Z,67.45
2023-05-02T17:58:00.438Z,66.84
2023-05-02T18:00:49.148Z,67.05
2023-05-02T18:03:38.484Z,67.89
2023-05-02T18:06:28.387Z,68.12
2023-05-02T18:09:17.417Z,68.72
2023-05-02T18:12:07.353Z,68.45
2023-05-02T18:14:56.088Z,67.26
2023-05-02T18:17:44.861Z,68.29
2023-05-02T18:20:39.317Z,69.04
2023-05-02T18:23:28.306Z,69.83
2023-05-02T18:26:17.169Z,70.22
2023-05-02T18:29:05.909Z,69.93
2023-05-02T18:31:55.610Z,70.26
2023-05-02T18:34:44.595Z,70.36
2023-05-02T18:37:34.711Z,71.02
2023-05-02T18:40:23.619Z,71.85
2023-05-02T18:43:12.279Z,72.13
2023-05-02T18:46:01.189Z,72.34
2023-05-02T18:48:52.208Z,72.57
2023-05-02T18:51:40.820Z,72.73
2023-05-02T18:54:30.453Z,72.76
2023-05-02T18:57:19.091Z,72.90
2023-05-02T19:00:09.821Z,73.36
2023-05-02T19:02:58.820Z,73.23
2023-05-02T19:05:50.088Z,73.25
2023-05-02T19:08:40.549Z,73.50
2023-05-02T19:11:29.320Z,73.53
2023-05-02T19:14:21.170Z,73.86
2023-05-02T19:17:09.922Z,73.88
2023-05-02T19:19:58.515Z,73.87
2023-05-02T19:22:47.430Z,73.88
2023-05-02T19:25:39.064Z,73.90
2023-05-02T19:28:28.618Z,74.28
2023-05-02T19:31:20.218Z,73.99
2023-05-02T19:34:09.212Z,74.51
2023-05-02T19:36:58.135Z,75.04
2023-05-02T19:39:46.735Z,75.57
2023-05-02T19:42:37.488Z,75.70
2023-05-02T19:45:26.486Z,75.99
2023-05-02T19:48:15.430Z,76.35
2023-05-02T19:51:04.778Z,76.53
2023-05-02T19:53:54.680Z,76.73
2023-05-02T19:56:43.434Z,76.86
2023-05-02T19:59:32.307Z,77.06
2023-05-02T20:02:21.870Z,76.96
2023-05-02T20:05:10.602Z,76.91
2023-05-02T20:07:59.617Z,76.95
2023-05-02T20:10:48.677Z,77.23
2023-05-02T20:13:37.161Z,77.36
2023-05-02T20:16:26.270Z,77.93
2023-05-02T20:19:16.291Z,78.03
2023-05-02T20:22:05.171Z,78.09
2023-05-02T20:24:53.920Z,78.09
2023-05-02T20:27:42.935Z,78.10
2023-05-02T20:30:32.155Z,78.29
2023-05-02T20:33:23.126Z,78.50
2023-05-02T20:36:15.061Z,78.40
2023-05-02T20:39:05.664Z,78.62
2023-05-02T20:41:56.712Z,78.49
2023-05-02T20:44:47.728Z,78.61
2023-05-02T20:47:36.567Z,79.05
2023-05-02T20:50:26.775Z,79.11
2023-05-02T20:53:15.818Z,78.89
2023-05-02T20:56:05.170Z,78.72
2023-05-02T20:58:53.754Z,78.83
2023-05-02T21:01:42.356Z,79.09
2023-05-02T21:04:31.180Z,79.16
2023-05-02T21:07:20.082Z,79.48
2023-05-02T21:10:09.407Z,79.69
2023-05-02T21:12:58.073Z,79.53
2023-05-02T21:15:49.769Z,79.60
2023-05-02T21:18:38.380Z,79.82
2023-05-02T21:21:27.044Z,80.06
2023-05-02T21:24:15.730Z,80.20
2023-05-02T21:27:06.626Z,80.07
2023-05-02T21:29:55.415Z,80.02
2023-05-02T21:32:45.025Z,80.10
2023-05-02T21:35:34.247Z,79.84
2023-05-02T21:38:23.212Z,79.95
2023-05-02T21:41:11.764Z,80.17
2023-05-02T21:44:00.511Z,80.24
2023-05-02T21:46:49.481Z,80.38
2023-05-02T21:49:38.114Z,80.51
2023-05-02T21:52:27.316Z,80.43
2023-05-02T21:55:16.288Z,80.42
2023-05-02T21:58:05.192Z,80.60
2023-05-02T22:00:53.911Z,80.57
2023-05-02T22:03:42.555Z,80.61
2023-05-02T22:06:34.291Z,80.73
2023-05-02T22:09:23.071Z,80.48
2023-05-02T22:12:11.886Z,80.50
2023-05-02T22:15:00.710Z,80.66
2023-05-02T22:17:49.256Z,80.78
2023-05-02T22:20:38.593Z,80.59
2023-05-02T22:23:27.300Z,80.86
2023-05-02T22:26:18.215Z,80.76
2023-05-02T22:29:07.032Z,80.89
2023-05-02T22:31:55.839Z,81.16
2023-05-02T22:34:44.868Z,80.92
2023-05-02T22:37:33.579Z,81.16
2023-05-02T22:40:22.120Z,81.25
2023-05-02T22:43:10.681Z,81.50
2023-05-02T22:45:59.302Z,81.43
2023-05-02T22:48:49.363Z,81.37
2023-05-02T22:51:40.264Z,81.14
2023-05-02T22:54:29.225Z,81.33
2023-05-02T22:57:17.818Z,81.09
2023-05-02T23:00:09.655Z,81.12
2023-05-02T23:02:58.461Z,81.15
2023-05-02T23:05:47.306Z,81.13
2023-05-02T23:08:35.916Z,81.22
2023-05-02T23:11:24.568Z,81.14
2023-05-02T23:14:13.226Z,81.32
2023-05-02T23:17:03.447Z,81.31
2023-05-02T23:19:52.050Z,81.59
2023-05-02T23:22:45.472Z,81.37
2023-05-02T23:25:36.264Z,81.30
2023-05-02T23:28:26.203Z,81.46
2023-05-02T23:31:14.968Z,81.46
2023-05-02T23:34:03.799Z,81.38
2023-05-02T23:36:55.582Z,81.65
2023-05-02T23:39:44.231Z,81.52
2023-05-02T23:42:34.737Z,81.53
2023-05-02T23:45:23.385Z,81.60
2023-05-02T23:48:11.933Z,81.80
2023-05-02T23:51:00.719Z,81.59
2023-05-02T23:53:49.387Z,81.63
2023-05-02T23:56:38.111Z,81.77
2023-05-02T23:59:26.758Z,81.80
